sensor_id;sensor_type;location;lat;lon;timestamp;P1;durP1;ratioP1;P2;durP2;ratioP2
63784;SDS011;49927;48.146;11.420;2023-02-15T00:01:53;43.67;;;20.13;;
63784;SDS011;49927;48.146;11.420;2023-02-15T00:04:21;49.75;;;19.70;;
63784;SDS011;49927;48.146;11.420;2023-02-15T00:06:48;56.05;;;21.00;;
63784;SDS011;49927;48.146;11.420;2023-02-15T00:09:13;62.45;;;19.98;;
63784;SDS011;49927;48.146;11.420;2023-02-15T00:11:39;60.50;;;21.45;;
63784;SDS011;49927;48.146;11.420;2023-02-15T00:14:07;70.22;;;22.80;;
63784;SDS011;49927;48.146;11.420;2023-02-15T00:16:34;52.25;;;20.33;;
63784;SDS011;49927;48.146;11.420;2023-02-15T00:18:59;52.33;;;18.50;;
63784;SDS011;49927;48.146;11.420;2023-02-15T00:21:25;60.55;;;20.20;;
63784;SDS011;49927;48.146;11.420;2023-02-15T00:23:51;42.55;;;19.73;;
63784;SDS011;49927;48.146;11.420;2023-02-15T00:26:16;45.60;;;18.75;;
63784;SDS011;49927;48.146;11.420;2023-02-15T00:28:41;59.20;;;18.63;;
63784;SDS011;49927;48.146;11.420;2023-02-15T00:31:09;53.63;;;17.75;;
63784;SDS011;49927;48.146;11.420;2023-02-15T00:33:35;59.85;;;20.67;;
63784;SDS011;49927;48.146;11.420;2023-02-15T00:36:01;61.03;;;20.00;;
63784;SDS011;49927;48.146;11.420;2023-02-15T00:38:28;61.80;;;22.23;;
63784;SDS011;49927;48.146;11.420;2023-02-15T00:40:54;57.25;;;21.48;;
63784;SDS011;49927;48.146;11.420;2023-02-15T00:43:19;57.47;;;21.40;;
63784;SDS011;49927;48.146;11.420;2023-02-15T00:45:45;52.50;;;22.08;;
63784;SDS011;49927;48.146;11.420;2023-02-15T00:48:12;44.83;;;19.27;;
63784;SDS011;49927;48.146;11.420;2023-02-15T00:50:37;47.28;;;20.15;;
63784;SDS011;49927;48.146;11.420;2023-02-15T00:53:03;42.75;;;18.77;;
63784;SDS011;49927;48.146;11.420;2023-02-15T00:55:28;44.80;;;19.55;;
63784;SDS011;49927;48.146;11.420;2023-02-15T00:57:54;42.15;;;17.80;;
63784;SDS011;49927;48.146;11.420;2023-02-15T01:00:19;54.78;;;19.60;;
63784;SDS011;49927;48.146;11.420;2023-02-15T01:02:45;49.70;;;19.42;;
63784;SDS011;49927;48.146;11.420;2023-02-15T01:05:12;45.78;;;18.95;;
63784;SDS011;49927;48.146;11.420;2023-02-15T01:07:37;51.70;;;19.20;;
63784;SDS011;49927;48.146;11.420;2023-02-15T01:10:03;41.13;;;18.63;;
63784;SDS011;49927;48.146;11.420;2023-02-15T01:12:29;53.10;;;17.92;;
63784;SDS011;49927;48.146;11.420;2023-02-15T01:14:55;48.83;;;17.73;;
63784;SDS011;49927;48.146;11.420;2023-02-15T01:17:20;50.60;;;18.15;;
63784;SDS011;49927;48.146;11.420;2023-02-15T01:19:46;35.60;;;18.25;;
63784;SDS011;49927;48.146;11.420;2023-02-15T01:22:12;61.17;;;25.55;;
63784;SDS011;49927;48.146;11.420;2023-02-15T01:24:38;46.90;;;19.60;;
63784;SDS011;49927;48.146;11.420;2023-02-15T01:27:04;42.92;;;19.02;;
63784;SDS011;49927;48.146;11.420;2023-02-15T01:29:29;45.00;;;17.42;;
63784;SDS011;49927;48.146;11.420;2023-02-15T01:31:55;50.30;;;19.10;;
63784;SDS011;49927;48.146;11.420;2023-02-15T01:34:20;49.78;;;18.90;;
63784;SDS011;49927;48.146;11.420;2023-02-15T01:36:46;42.70;;;18.83;;
63784;SDS011;49927;48.146;11.420;2023-02-15T01:39:12;41.30;;;17.63;;
63784;SDS011;49927;48.146;11.420;2023-02-15T01:41:38;39.95;;;18.08;;
63784;SDS011;49927;48.146;11.420;2023-02-15T01:47:07;51.15;;;17.65;;
63784;SDS011;49927;48.146;11.420;2023-02-15T01:49:34;47.90;;;18.63;;
63784;SDS011;49927;48.146;11.420;2023-02-15T01:52:00;63.60;;;18.45;;
63784;SDS011;49927;48.146;11.420;2023-02-15T01:54:27;36.47;;;16.67;;
63784;SDS011;49927;48.146;11.420;2023-02-15T01:56:54;41.70;;;17.85;;
63784;SDS011;49927;48.146;11.420;2023-02-15T01:59:23;46.47;;;17.40;;
63784;SDS011;49927;48.146;11.420;2023-02-15T02:01:49;32.63;;;15.90;;
63784;SDS011;49927;48.146;11.420;2023-02-15T02:04:16;38.47;;;17.67;;
63784;SDS011;49927;48.146;11.420;2023-02-15T02:06:43;45.33;;;17.63;;
63784;SDS011;49927;48.146;11.420;2023-02-15T02:09:10;44.85;;;15.40;;
63784;SDS011;49927;48.146;11.420;2023-02-15T02:11:36;31.50;;;15.52;;
63784;SDS011;49927;48.146;11.420;2023-02-15T02:14:03;33.28;;;16.92;;
63784;SDS011;49927;48.146;11.420;2023-02-15T02:16:31;38.28;;;15.63;;
63784;SDS011;49927;48.146;11.420;2023-02-15T02:19:09;36.10;;;16.00;;
63784;SDS011;49927;48.146;11.420;2023-02-15T02:21:53;35.83;;;17.25;;
63784;SDS011;49927;48.146;11.420;2023-02-15T02:24:54;36.00;;;16.08;;
63784;SDS011;49927;48.146;11.420;2023-02-15T02:27:49;39.88;;;15.95;;
63784;SDS011;49927;48.146;11.420;2023-02-15T02:30:24;37.58;;;16.25;;
63784;SDS011;49927;48.146;11.420;2023-02-15T02:35:49;30.13;;;14.77;;
63784;SDS011;49927;48.146;11.420;2023-02-15T02:38:23;32.10;;;14.23;;
63784;SDS011;49927;48.146;11.420;2023-02-15T02:40:52;35.80;;;15.27;;
63784;SDS011;49927;48.146;11.420;2023-02-15T02:43:23;39.28;;;15.43;;
63784;SDS011;49927;48.146;11.420;2023-02-15T02:45:52;27.67;;;13.82;;
63784;SDS011;49927;48.146;11.420;2023-02-15T02:48:22;32.65;;;15.05;;
63784;SDS011;49927;48.146;11.420;2023-02-15T02:50:50;31.92;;;16.73;;
63784;SDS011;49927;48.146;11.420;2023-02-15T02:53:16;35.78;;;15.88;;
63784;SDS011;49927;48.146;11.420;2023-02-15T02:55:42;34.65;;;15.57;;
63784;SDS011;49927;48.146;11.420;2023-02-15T02:58:10;34.45;;;14.52;;
63784;SDS011;49927;48.146;11.420;2023-02-15T03:00:39;36.22;;;15.02;;
63784;SDS011;49927;48.146;11.420;2023-02-15T03:03:08;31.45;;;15.48;;
63784;SDS011;49927;48.146;11.420;2023-02-15T03:05:37;31.92;;;14.82;;
63784;SDS011;49927;48.146;11.420;2023-02-15T03:08:05;34.63;;;13.82;;
63784;SDS011;49927;48.146;11.420;2023-02-15T03:10:32;38.00;;;16.20;;
63784;SDS011;49927;48.146;11.420;2023-02-15T03:12:58;37.03;;;15.15;;
63784;SDS011;49927;48.146;11.420;2023-02-15T03:15:25;35.30;;;14.45;;
63784;SDS011;49927;48.146;11.420;2023-02-15T03:17:54;29.55;;;13.65;;
63784;SDS011;49927;48.146;11.420;2023-02-15T03:20:22;40.75;;;14.93;;
63784;SDS011;49927;48.146;11.420;2023-02-15T03:22:51;36.22;;;14.27;;
63784;SDS011;49927;48.146;11.420;2023-02-15T03:25:19;30.38;;;14.32;;
63784;SDS011;49927;48.146;11.420;2023-02-15T03:27:48;38.42;;;14.23;;
63784;SDS011;49927;48.146;11.420;2023-02-15T03:30:16;32.00;;;13.02;;
63784;SDS011;49927;48.146;11.420;2023-02-15T03:32:44;34.95;;;13.80;;
63784;SDS011;49927;48.146;11.420;2023-02-15T03:35:10;33.17;;;13.77;;
63784;SDS011;49927;48.146;11.420;2023-02-15T03:37:36;23.40;;;13.07;;
63784;SDS011;49927;48.146;11.420;2023-02-15T03:40:06;40.42;;;14.70;;
63784;SDS011;49927;48.146;11.420;2023-02-15T03:42:34;38.53;;;13.88;;
63784;SDS011;49927;48.146;11.420;2023-02-15T03:45:03;37.80;;;15.00;;
63784;SDS011;49927;48.146;11.420;2023-02-15T03:47:32;43.30;;;15.60;;
63784;SDS011;49927;48.146;11.420;2023-02-15T03:50:01;54.65;;;14.57;;
63784;SDS011;49927;48.146;11.420;2023-02-15T03:52:28;32.53;;;14.45;;
63784;SDS011;49927;48.146;11.420;2023-02-15T03:54:54;31.52;;;13.98;;
63784;SDS011;49927;48.146;11.420;2023-02-15T03:57:23;30.70;;;13.20;;
63784;SDS011;49927;48.146;11.420;2023-02-15T03:59:49;45.20;;;13.88;;
63784;SDS011;49927;48.146;11.420;2023-02-15T04:02:15;28.05;;;13.38;;
63784;SDS011;49927;48.146;11.420;2023-02-15T04:04:47;24.73;;;12.77;;
63784;SDS011;49927;48.146;11.420;2023-02-15T04:07:12;32.92;;;13.82;;
63784;SDS011;49927;48.146;11.420;2023-02-15T04:09:38;32.45;;;14.40;;
63784;SDS011;49927;48.146;11.420;2023-02-15T04:12:04;29.77;;;13.45;;
63784;SDS011;49927;48.146;11.420;2023-02-15T04:14:31;28.20;;;14.27;;
63784;SDS011;49927;48.146;11.420;2023-02-15T04:16:56;30.17;;;14.15;;
63784;SDS011;49927;48.146;11.420;2023-02-15T04:19:22;25.63;;;13.30;;
63784;SDS011;49927;48.146;11.420;2023-02-15T04:21:47;30.17;;;14.27;;
63784;SDS011;49927;48.146;11.420;2023-02-15T04:24:13;29.45;;;14.48;;
63784;SDS011;49927;48.146;11.420;2023-02-15T04:26:39;38.85;;;16.55;;
63784;SDS011;49927;48.146;11.420;2023-02-15T04:29:04;34.65;;;14.18;;
63784;SDS011;49927;48.146;11.420;2023-02-15T04:31:31;39.40;;;15.00;;
63784;SDS011;49927;48.146;11.420;2023-02-15T04:33:56;28.02;;;14.23;;
63784;SDS011;49927;48.146;11.420;2023-02-15T04:36:22;32.13;;;14.18;;
63784;SDS011;49927;48.146;11.420;2023-02-15T04:38:47;28.77;;;13.73;;
63784;SDS011;49927;48.146;11.420;2023-02-15T04:41:13;33.72;;;14.10;;
63784;SDS011;49927;48.146;11.420;2023-02-15T04:43:38;27.80;;;14.30;;
63784;SDS011;49927;48.146;11.420;2023-02-15T04:46:04;45.08;;;15.82;;
63784;SDS011;49927;48.146;11.420;2023-02-15T04:48:31;36.10;;;15.80;;
63784;SDS011;49927;48.146;11.420;2023-02-15T04:50:56;37.97;;;14.45;;
63784;SDS011;49927;48.146;11.420;2023-02-15T04:53:22;28.05;;;13.48;;
63784;SDS011;49927;48.146;11.420;2023-02-15T04:55:47;29.95;;;13.27;;
63784;SDS011;49927;48.146;11.420;2023-02-15T04:58:13;30.77;;;14.38;;
63784;SDS011;49927;48.146;11.420;2023-02-15T05:00:38;27.85;;;13.75;;
63784;SDS011;49927;48.146;11.420;2023-02-15T05:03:04;27.02;;;13.23;;
63784;SDS011;49927;48.146;11.420;2023-02-15T05:05:31;24.58;;;12.88;;
63784;SDS011;49927;48.146;11.420;2023-02-15T05:07:56;33.03;;;14.52;;
63784;SDS011;49927;48.146;11.420;2023-02-15T05:10:22;28.63;;;13.65;;
63784;SDS011;49927;48.146;11.420;2023-02-15T05:12:47;23.27;;;13.10;;
63784;SDS011;49927;48.146;11.420;2023-02-15T05:15:13;28.75;;;13.23;;
63784;SDS011;49927;48.146;11.420;2023-02-15T05:17:38;27.13;;;13.23;;
63784;SDS011;49927;48.146;11.420;2023-02-15T05:20:04;24.73;;;13.27;;
63784;SDS011;49927;48.146;11.420;2023-02-15T05:22:32;27.17;;;12.90;;
63784;SDS011;49927;48.146;11.420;2023-02-15T05:24:57;24.13;;;12.50;;
63784;SDS011;49927;48.146;11.420;2023-02-15T05:27:23;29.35;;;14.27;;
63784;SDS011;49927;48.146;11.420;2023-02-15T05:29:48;33.10;;;13.48;;
63784;SDS011;49927;48.146;11.420;2023-02-15T05:32:14;26.10;;;11.82;;
63784;SDS011;49927;48.146;11.420;2023-02-15T05:34:40;25.35;;;11.48;;
63784;SDS011;49927;48.146;11.420;2023-02-15T05:37:05;23.15;;;12.32;;
63784;SDS011;49927;48.146;11.420;2023-02-15T05:39:32;27.80;;;13.02;;
63784;SDS011;49927;48.146;11.420;2023-02-15T05:41:58;28.70;;;12.90;;
63784;SDS011;49927;48.146;11.420;2023-02-15T05:44:23;25.67;;;13.05;;
63784;SDS011;49927;48.146;11.420;2023-02-15T05:46:49;27.08;;;13.02;;
63784;SDS011;49927;48.146;11.420;2023-02-15T05:49:14;20.52;;;12.10;;
63784;SDS011;49927;48.146;11.420;2023-02-15T05:51:40;23.10;;;12.82;;
63784;SDS011;49927;48.146;11.420;2023-02-15T05:54:05;21.48;;;12.93;;
63784;SDS011;49927;48.146;11.420;2023-02-15T05:56:32;26.15;;;13.38;;
63784;SDS011;49927;48.146;11.420;2023-02-15T05:58:58;34.42;;;13.43;;
63784;SDS011;49927;48.146;11.420;2023-02-15T06:01:23;25.58;;;13.15;;
63784;SDS011;49927;48.146;11.420;2023-02-15T06:03:49;29.15;;;12.88;;
63784;SDS011;49927;48.146;11.420;2023-02-15T06:06:15;23.80;;;12.55;;
63784;SDS011;49927;48.146;11.420;2023-02-15T06:08:41;25.15;;;13.23;;
63784;SDS011;49927;48.146;11.420;2023-02-15T06:11:06;29.40;;;13.60;;
63784;SDS011;49927;48.146;11.420;2023-02-15T06:13:33;32.95;;;13.55;;
63784;SDS011;49927;48.146;11.420;2023-02-15T06:15:59;24.75;;;12.68;;
63784;SDS011;49927;48.146;11.420;2023-02-15T06:18:25;28.20;;;13.50;;
63784;SDS011;49927;48.146;11.420;2023-02-15T06:20:50;29.90;;;13.32;;
63784;SDS011;49927;48.146;11.420;2023-02-15T06:23:16;22.08;;;11.90;;
63784;SDS011;49927;48.146;11.420;2023-02-15T06:25:42;24.80;;;13.45;;
63784;SDS011;49927;48.146;11.420;2023-02-15T06:28:08;26.30;;;13.82;;
63784;SDS011;49927;48.146;11.420;2023-02-15T06:30:35;25.60;;;13.93;;
63784;SDS011;49927;48.146;11.420;2023-02-15T06:33:00;23.50;;;12.32;;
63784;SDS011;49927;48.146;11.420;2023-02-15T06:35:26;25.80;;;13.13;;
63784;SDS011;49927;48.146;11.420;2023-02-15T06:37:51;26.60;;;13.60;;
63784;SDS011;49927;48.146;11.420;2023-02-15T06:40:17;27.80;;;13.27;;
63784;SDS011;49927;48.146;11.420;2023-02-15T06:42:42;22.02;;;11.25;;
63784;SDS011;49927;48.146;11.420;2023-02-15T06:45:08;24.73;;;13.75;;
63784;SDS011;49927;48.146;11.420;2023-02-15T06:47:36;27.55;;;12.88;;
63784;SDS011;49927;48.146;11.420;2023-02-15T06:50:01;26.92;;;13.63;;
63784;SDS011;49927;48.146;11.420;2023-02-15T06:52:27;27.55;;;12.85;;
63784;SDS011;49927;48.146;11.420;2023-02-15T06:54:53;31.90;;;14.55;;
63784;SDS011;49927;48.146;11.420;2023-02-15T06:57:18;26.20;;;13.40;;
63784;SDS011;49927;48.146;11.420;2023-02-15T06:59:44;28.45;;;13.32;;
63784;SDS011;49927;48.146;11.420;2023-02-15T07:02:10;25.05;;;12.07;;
63784;SDS011;49927;48.146;11.420;2023-02-15T07:04:37;21.65;;;11.55;;
63784;SDS011;49927;48.146;11.420;2023-02-15T07:07:03;28.08;;;11.65;;
63784;SDS011;49927;48.146;11.420;2023-02-15T07:09:29;23.08;;;12.48;;
63784;SDS011;49927;48.146;11.420;2023-02-15T07:11:54;23.33;;;11.88;;
63784;SDS011;49927;48.146;11.420;2023-02-15T07:14:20;27.65;;;13.20;;
63784;SDS011;49927;48.146;11.420;2023-02-15T07:16:45;28.90;;;12.38;;
63784;SDS011;49927;48.146;11.420;2023-02-15T07:19:11;32.33;;;12.43;;
63784;SDS011;49927;48.146;11.420;2023-02-15T07:21:38;25.55;;;12.80;;
63784;SDS011;49927;48.146;11.420;2023-02-15T07:24:03;27.98;;;13.85;;
63784;SDS011;49927;48.146;11.420;2023-02-15T07:26:31;30.48;;;12.88;;
63784;SDS011;49927;48.146;11.420;2023-02-15T07:28:56;34.47;;;14.68;;
63784;SDS011;49927;48.146;11.420;2023-02-15T07:31:22;34.45;;;15.25;;
63784;SDS011;49927;48.146;11.420;2023-02-15T07:33:47;30.90;;;15.13;;
63784;SDS011;49927;48.146;11.420;2023-02-15T07:36:13;28.27;;;14.73;;
63784;SDS011;49927;48.146;11.420;2023-02-15T07:38:40;34.38;;;15.23;;
63784;SDS011;49927;48.146;11.420;2023-02-15T07:41:07;32.42;;;15.25;;
63784;SDS011;49927;48.146;11.420;2023-02-15T07:43:34;28.60;;;14.70;;
63784;SDS011;49927;48.146;11.420;2023-02-15T07:46:00;34.42;;;16.00;;
63784;SDS011;49927;48.146;11.420;2023-02-15T07:48:26;35.80;;;16.30;;
63784;SDS011;49927;48.146;11.420;2023-02-15T07:50:51;39.55;;;17.05;;
63784;SDS011;49927;48.146;11.420;2023-02-15T07:53:17;37.72;;;17.95;;
63784;SDS011;49927;48.146;11.420;2023-02-15T07:55:44;37.40;;;17.70;;
63784;SDS011;49927;48.146;11.420;2023-02-15T07:58:09;35.58;;;17.60;;
63784;SDS011;49927;48.146;11.420;2023-02-15T08:00:35;36.33;;;16.52;;
63784;SDS011;49927;48.146;11.420;2023-02-15T08:03:01;37.22;;;17.70;;
63784;SDS011;49927;48.146;11.420;2023-02-15T08:05:26;40.72;;;18.15;;
63784;SDS011;49927;48.146;11.420;2023-02-15T08:07:53;32.33;;;16.75;;
63784;SDS011;49927;48.146;11.420;2023-02-15T08:10:19;36.65;;;16.33;;
63784;SDS011;49927;48.146;11.420;2023-02-15T08:12:46;35.55;;;17.00;;
63784;SDS011;49927;48.146;11.420;2023-02-15T08:15:11;41.55;;;18.10;;
63784;SDS011;49927;48.146;11.420;2023-02-15T08:17:36;41.85;;;18.67;;
63784;SDS011;49927;48.146;11.420;2023-02-15T08:20:02;49.35;;;22.58;;
63784;SDS011;49927;48.146;11.420;2023-02-15T08:22:28;44.75;;;20.45;;
63784;SDS011;49927;48.146;11.420;2023-02-15T08:24:53;51.15;;;21.42;;
63784;SDS011;49927;48.146;11.420;2023-02-15T08:27:19;50.95;;;20.50;;
63784;SDS011;49927;48.146;11.420;2023-02-15T08:29:46;54.22;;;22.55;;
63784;SDS011;49927;48.146;11.420;2023-02-15T08:32:11;56.00;;;22.63;;
63784;SDS011;49927;48.146;11.420;2023-02-15T08:34:39;54.80;;;23.42;;
63784;SDS011;49927;48.146;11.420;2023-02-15T08:37:05;57.15;;;25.02;;
63784;SDS011;49927;48.146;11.420;2023-02-15T08:39:30;61.20;;;25.30;;
63784;SDS011;49927;48.146;11.420;2023-02-15T08:41:56;58.85;;;25.83;;
63784;SDS011;49927;48.146;11.420;2023-02-15T08:44:21;56.58;;;25.27;;
63784;SDS011;49927;48.146;11.420;2023-02-15T08:46:49;52.58;;;24.30;;
63784;SDS011;49927;48.146;11.420;2023-02-15T08:49:15;58.05;;;23.90;;
63784;SDS011;49927;48.146;11.420;2023-02-15T08:51:42;56.97;;;25.58;;
63784;SDS011;49927;48.146;11.420;2023-02-15T08:54:08;64.68;;;27.27;;
63784;SDS011;49927;48.146;11.420;2023-02-15T08:56:35;59.97;;;25.85;;
63784;SDS011;49927;48.146;11.420;2023-02-15T08:59:02;58.03;;;25.52;;
63784;SDS011;49927;48.146;11.420;2023-02-15T09:01:28;61.17;;;26.48;;
63784;SDS011;49927;48.146;11.420;2023-02-15T09:03:56;57.17;;;25.63;;
63784;SDS011;49927;48.146;11.420;2023-02-15T09:06:22;54.20;;;23.73;;
63784;SDS011;49927;48.146;11.420;2023-02-15T09:08:48;65.55;;;29.10;;
63784;SDS011;49927;48.146;11.420;2023-02-15T09:11:15;53.20;;;25.83;;
63784;SDS011;49927;48.146;11.420;2023-02-15T09:13:42;51.00;;;25.08;;
63784;SDS011;49927;48.146;11.420;2023-02-15T09:16:08;55.95;;;23.67;;
63784;SDS011;49927;48.146;11.420;2023-02-15T09:18:34;51.58;;;19.48;;
63784;SDS011;49927;48.146;11.420;2023-02-15T09:21:07;52.38;;;21.40;;
63784;SDS011;49927;48.146;11.420;2023-02-15T09:23:33;51.65;;;22.75;;
63784;SDS011;49927;48.146;11.420;2023-02-15T09:26:01;53.72;;;24.92;;
63784;SDS011;49927;48.146;11.420;2023-02-15T09:28:28;49.95;;;21.88;;
63784;SDS011;49927;48.146;11.420;2023-02-15T09:30:53;50.58;;;22.90;;
63784;SDS011;49927;48.146;11.420;2023-02-15T09:33:19;38.85;;;19.92;;
63784;SDS011;49927;48.146;11.420;2023-02-15T09:35:44;55.92;;;25.50;;
63784;SDS011;49927;48.146;11.420;2023-02-15T09:38:11;48.10;;;22.85;;
63784;SDS011;49927;48.146;11.420;2023-02-15T09:40:39;39.45;;;19.80;;
63784;SDS011;49927;48.146;11.420;2023-02-15T09:43:20;43.03;;;21.58;;
63784;SDS011;49927;48.146;11.420;2023-02-15T09:45:59;42.05;;;20.10;;
63784;SDS011;49927;48.146;11.420;2023-02-15T09:48:41;38.90;;;20.00;;
63784;SDS011;49927;48.146;11.420;2023-02-15T09:51:12;39.88;;;21.13;;
63784;SDS011;49927;48.146;11.420;2023-02-15T09:53:54;36.05;;;19.45;;
63784;SDS011;49927;48.146;11.420;2023-02-15T09:56:37;35.87;;;19.17;;
63784;SDS011;49927;48.146;11.420;2023-02-15T09:59:05;34.20;;;20.02;;
63784;SDS011;49927;48.146;11.420;2023-02-15T10:01:37;36.20;;;18.50;;
63784;SDS011;49927;48.146;11.420;2023-02-15T10:04:21;35.70;;;19.42;;
63784;SDS011;49927;48.146;11.420;2023-02-15T10:06:57;32.58;;;19.45;;
63784;SDS011;49927;48.146;11.420;2023-02-15T10:09:29;37.50;;;20.35;;
63784;SDS011;49927;48.146;11.420;2023-02-15T10:12:04;32.70;;;18.95;;
63784;SDS011;49927;48.146;11.420;2023-02-15T10:14:40;52.15;;;24.00;;
63784;SDS011;49927;48.146;11.420;2023-02-15T10:17:25;36.38;;;19.65;;
63784;SDS011;49927;48.146;11.420;2023-02-15T10:20:00;30.90;;;18.23;;
63784;SDS011;49927;48.146;11.420;2023-02-15T10:22:37;31.02;;;17.77;;
63784;SDS011;49927;48.146;11.420;2023-02-15T10:25:16;30.75;;;17.92;;
63784;SDS011;49927;48.146;11.420;2023-02-15T10:27:47;33.22;;;19.90;;
63784;SDS011;49927;48.146;11.420;2023-02-15T10:30:14;31.15;;;18.50;;
63784;SDS011;49927;48.146;11.420;2023-02-15T10:32:41;37.22;;;20.77;;
63784;SDS011;49927;48.146;11.420;2023-02-15T10:35:16;37.22;;;19.90;;
63784;SDS011;49927;48.146;11.420;2023-02-15T10:37:49;39.28;;;21.27;;
63784;SDS011;49927;48.146;11.420;2023-02-15T10:40:25;35.35;;;18.20;;
63784;SDS011;49927;48.146;11.420;2023-02-15T10:42:57;38.53;;;20.83;;
63784;SDS011;49927;48.146;11.420;2023-02-15T10:45:40;33.80;;;19.83;;
63784;SDS011;49927;48.146;11.420;2023-02-15T10:48:16;36.80;;;19.27;;
63784;SDS011;49927;48.146;11.420;2023-02-15T10:51:02;37.45;;;20.33;;
63784;SDS011;49927;48.146;11.420;2023-02-15T10:56:25;35.65;;;19.98;;
63784;SDS011;49927;48.146;11.420;2023-02-15T10:59:03;35.67;;;19.00;;
63784;SDS011;49927;48.146;11.420;2023-02-15T11:01:49;39.42;;;21.05;;
63784;SDS011;49927;48.146;11.420;2023-02-15T11:04:34;35.75;;;22.10;;
63784;SDS011;49927;48.146;11.420;2023-02-15T11:09:33;36.65;;;20.63;;
63784;SDS011;49927;48.146;11.420;2023-02-15T11:12:04;38.85;;;20.85;;
63784;SDS011;49927;48.146;11.420;2023-02-15T11:14:35;37.90;;;21.50;;
63784;SDS011;49927;48.146;11.420;2023-02-15T11:17:04;35.95;;;20.65;;
63784;SDS011;49927;48.146;11.420;2023-02-15T11:19:34;33.85;;;18.77;;
63784;SDS011;49927;48.146;11.420;2023-02-15T11:22:01;51.80;;;25.40;;
63784;SDS011;49927;48.146;11.420;2023-02-15T11:24:29;35.72;;;20.40;;
63784;SDS011;49927;48.146;11.420;2023-02-15T11:26:57;40.50;;;21.05;;
63784;SDS011;49927;48.146;11.420;2023-02-15T11:29:26;32.63;;;19.42;;
63784;SDS011;49927;48.146;11.420;2023-02-15T11:31:56;34.22;;;20.15;;
63784;SDS011;49927;48.146;11.420;2023-02-15T11:34:25;33.20;;;20.63;;
63784;SDS011;49927;48.146;11.420;2023-02-15T11:36:54;38.42;;;20.98;;
63784;SDS011;49927;48.146;11.420;2023-02-15T11:39:20;36.75;;;20.38;;
63784;SDS011;49927;48.146;11.420;2023-02-15T11:41:47;38.53;;;22.77;;
63784;SDS011;49927;48.146;11.420;2023-02-15T11:44:18;45.78;;;23.17;;
63784;SDS011;49927;48.146;11.420;2023-02-15T11:46:47;42.03;;;20.83;;
63784;SDS011;49927;48.146;11.420;2023-02-15T11:49:19;37.05;;;21.17;;
63784;SDS011;49927;48.146;11.420;2023-02-15T11:51:47;35.00;;;19.67;;
63784;SDS011;49927;48.146;11.420;2023-02-15T11:54:12;38.83;;;21.42;;
63784;SDS011;49927;48.146;11.420;2023-02-15T11:56:48;38.97;;;21.10;;
63784;SDS011;49927;48.146;11.420;2023-02-15T11:59:18;45.05;;;23.98;;
63784;SDS011;49927;48.146;11.420;2023-02-15T12:01:53;40.30;;;23.08;;
63784;SDS011;49927;48.146;11.420;2023-02-15T12:04:21;37.97;;;21.25;;
63784;SDS011;49927;48.146;11.420;2023-02-15T12:06:49;37.83;;;21.00;;
63784;SDS011;49927;48.146;11.420;2023-02-15T12:09:20;40.20;;;22.90;;
63784;SDS011;49927;48.146;11.420;2023-02-15T12:11:51;35.67;;;20.65;;
63784;SDS011;49927;48.146;11.420;2023-02-15T12:14:17;36.83;;;20.40;;
63784;SDS011;49927;48.146;11.420;2023-02-15T12:16:44;39.35;;;21.55;;
63784;SDS011;49927;48.146;11.420;2023-02-15T12:19:20;35.42;;;19.70;;
63784;SDS011;49927;48.146;11.420;2023-02-15T12:21:51;35.45;;;20.92;;
63784;SDS011;49927;48.146;11.420;2023-02-15T12:24:17;38.10;;;21.35;;
63784;SDS011;49927;48.146;11.420;2023-02-15T12:26:44;36.08;;;21.65;;
63784;SDS011;49927;48.146;11.420;2023-02-15T12:29:12;46.60;;;21.98;;
63784;SDS011;49927;48.146;11.420;2023-02-15T12:31:41;35.75;;;19.15;;
63784;SDS011;49927;48.146;11.420;2023-02-15T12:34:09;31.75;;;19.42;;
63784;SDS011;49927;48.146;11.420;2023-02-15T12:36:44;46.08;;;22.10;;
63784;SDS011;49927;48.146;11.420;2023-02-15T12:39:18;36.95;;;21.73;;
63784;SDS011;49927;48.146;11.420;2023-02-15T12:41:46;35.28;;;21.20;;
63784;SDS011;49927;48.146;11.420;2023-02-15T12:44:22;35.85;;;20.60;;
63784;SDS011;49927;48.146;11.420;2023-02-15T12:46:55;39.13;;;20.83;;
63784;SDS011;49927;48.146;11.420;2023-02-15T12:49:21;33.15;;;19.52;;
63784;SDS011;49927;48.146;11.420;2023-02-15T12:51:49;42.60;;;22.10;;
63784;SDS011;49927;48.146;11.420;2023-02-15T12:54:16;35.85;;;21.45;;
63784;SDS011;49927;48.146;11.420;2023-02-15T12:56:46;38.83;;;20.40;;
63784;SDS011;49927;48.146;11.420;2023-02-15T12:59:12;36.95;;;20.95;;
63784;SDS011;49927;48.146;11.420;2023-02-15T13:01:39;32.30;;;20.08;;
63784;SDS011;49927;48.146;11.420;2023-02-15T13:04:05;35.75;;;21.27;;
63784;SDS011;49927;48.146;11.420;2023-02-15T13:06:46;35.75;;;19.42;;
63784;SDS011;49927;48.146;11.420;2023-02-15T13:09:15;37.72;;;20.35;;
63784;SDS011;49927;48.146;11.420;2023-02-15T13:11:44;36.97;;;21.13;;
63784;SDS011;49927;48.146;11.420;2023-02-15T13:14:15;50.50;;;23.40;;
63784;SDS011;49927;48.146;11.420;2023-02-15T13:16:42;37.47;;;20.17;;
63784;SDS011;49927;48.146;11.420;2023-02-15T13:19:10;43.47;;;22.52;;
63784;SDS011;49927;48.146;11.420;2023-02-15T13:21:38;46.20;;;22.27;;
63784;SDS011;49927;48.146;11.420;2023-02-15T13:24:10;34.33;;;21.35;;
63784;SDS011;49927;48.146;11.420;2023-02-15T13:26:40;37.05;;;19.98;;
63784;SDS011;49927;48.146;11.420;2023-02-15T13:29:08;36.92;;;20.35;;
63784;SDS011;49927;48.146;11.420;2023-02-15T13:31:50;38.78;;;21.50;;
63784;SDS011;49927;48.146;11.420;2023-02-15T13:37:01;44.15;;;21.88;;
63784;SDS011;49927;48.146;11.420;2023-02-15T13:39:32;35.45;;;21.17;;
63784;SDS011;49927;48.146;11.420;2023-02-15T13:42:11;36.55;;;21.88;;
63784;SDS011;49927;48.146;11.420;2023-02-15T13:44:50;41.88;;;21.75;;
63784;SDS011;49927;48.146;11.420;2023-02-15T13:48:16;37.05;;;20.38;;
63784;SDS011;49927;48.146;11.420;2023-02-15T13:50:31;41.78;;;21.77;;
63784;SDS011;49927;48.146;11.420;2023-02-15T13:53:09;41.15;;;20.33;;
63784;SDS011;49927;48.146;11.420;2023-02-15T13:55:45;37.25;;;21.58;;
63784;SDS011;49927;48.146;11.420;2023-02-15T14:01:14;42.42;;;22.73;;
63784;SDS011;49927;48.146;11.420;2023-02-15T14:03:49;35.28;;;20.33;;
63784;SDS011;49927;48.146;11.420;2023-02-15T14:09:52;33.28;;;20.17;;
63784;SDS011;49927;48.146;11.420;2023-02-15T14:12:51;36.75;;;20.55;;
63784;SDS011;49927;48.146;11.420;2023-02-15T14:15:26;40.33;;;21.45;;
63784;SDS011;49927;48.146;11.420;2023-02-15T14:17:59;35.47;;;20.08;;
63784;SDS011;49927;48.146;11.420;2023-02-15T14:20:39;35.80;;;20.88;;
63784;SDS011;49927;48.146;11.420;2023-02-15T14:23:11;38.40;;;20.83;;
63784;SDS011;49927;48.146;11.420;2023-02-15T14:25:51;32.03;;;18.67;;
63784;SDS011;49927;48.146;11.420;2023-02-15T14:28:24;32.80;;;19.27;;
63784;SDS011;49927;48.146;11.420;2023-02-15T14:30:52;35.33;;;22.10;;
63784;SDS011;49927;48.146;11.420;2023-02-15T14:33:25;35.38;;;20.35;;
63784;SDS011;49927;48.146;11.420;2023-02-15T14:35:56;34.80;;;21.30;;
63784;SDS011;49927;48.146;11.420;2023-02-15T14:38:24;33.83;;;20.17;;